sensor_id;sensor_type;location;lat;lon;timestamp;P1;P2;P0
73146;PMS7003;61345;48.922;2.244;2023-04-03T00:01:14;20.75;17.50;13.00
73146;PMS7003;61345;48.922;2.244;2023-04-03T00:03:39;18.25;14.50;10.50
73146;PMS7003;61345;48.922;2.244;2023-04-03T00:06:06;26.50;19.50;11.00
73146;PMS7003;61345;48.922;2.244;2023-04-03T00:08:32;19.75;15.75;11.25
73146;PMS7003;61345;48.922;2.244;2023-04-03T00:10:57;23.25;18.00;12.75
73146;PMS7003;61345;48.922;2.244;2023-04-03T00:13:23;25.25;17.25;10.50
73146;PMS7003;61345;48.922;2.244;2023-04-03T00:15:48;17.00;17.00;11.00
73146;PMS7003;61345;48.922;2.244;2023-04-03T00:18:13;24.75;16.25;10.50
73146;PMS7003;61345;48.922;2.244;2023-04-03T00:20:39;23.67;18.67;13.00
73146;PMS7003;61345;48.922;2.244;2023-04-03T00:23:04;21.00;15.00;10.00
73146;PMS7003;61345;48.922;2.244;2023-04-03T00:25:29;17.50;14.75;10.75
73146;PMS7003;61345;48.922;2.244;2023-04-03T00:27:54;21.67;16.67;10.67
73146;PMS7003;61345;48.922;2.244;2023-04-03T00:30:20;24.67;21.00;13.00
73146;PMS7003;61345;48.922;2.244;2023-04-03T00:32:49;25.75;20.00;12.50
73146;PMS7003;61345;48.922;2.244;2023-04-03T00:35:15;21.25;15.50;11.25
73146;PMS7003;61345;48.922;2.244;2023-04-03T00:37:43;18.25;16.00;11.25
73146;PMS7003;61345;48.922;2.244;2023-04-03T00:40:09;26.25;17.50;11.50
73146;PMS7003;61345;48.922;2.244;2023-04-03T00:42:39;23.00;19.75;13.25
73146;PMS7003;61345;48.922;2.244;2023-04-03T00:47:29;28.67;19.33;11.33
73146;PMS7003;61345;48.922;2.244;2023-04-03T00:49:55;32.00;24.00;14.50
73146;PMS7003;61345;48.922;2.244;2023-04-03T00:52:23;18.75;17.25;11.25
73146;PMS7003;61345;48.922;2.244;2023-04-03T00:54:50;31.75;21.75;13.75
73146;PMS7003;61345;48.922;2.244;2023-04-03T00:57:17;21.25;19.25;13.25
73146;PMS7003;61345;48.922;2.244;2023-04-03T00:59:43;20.00;15.25;6.00
73146;PMS7003;61345;48.922;2.244;2023-04-03T01:02:10;22.00;17.25;10.25
73146;PMS7003;61345;48.922;2.244;2023-04-03T01:04:39;25.75;19.25;13.00
73146;PMS7003;61345;48.922;2.244;2023-04-03T01:07:27;27.50;17.50;10.75
73146;PMS7003;61345;48.922;2.244;2023-04-03T01:09:52;33.00;23.25;14.00
73146;PMS7003;61345;48.922;2.244;2023-04-03T01:12:19;28.00;21.75;14.00
73146;PMS7003;61345;48.922;2.244;2023-04-03T01:14:45;29.00;21.75;13.50
73146;PMS7003;61345;48.922;2.244;2023-04-03T01:23:27;21.00;17.00;11.25
73146;PMS7003;61345;48.922;2.244;2023-04-03T01:25:26;21.50;19.00;12.50
73146;PMS7003;61345;48.922;2.244;2023-04-03T01:27:51;28.50;17.00;12.00
73146;PMS7003;61345;48.922;2.244;2023-04-03T01:30:17;26.00;19.00;13.00
73146;PMS7003;61345;48.922;2.244;2023-04-03T01:32:43;25.75;16.25;9.50
73146;PMS7003;61345;48.922;2.244;2023-04-03T01:35:08;32.33;23.00;14.00
73146;PMS7003;61345;48.922;2.244;2023-04-03T01:37:34;21.25;16.50;12.00
73146;PMS7003;61345;48.922;2.244;2023-04-03T01:40:00;29.00;20.25;13.00
73146;PMS7003;61345;48.922;2.244;2023-04-03T01:42:25;23.67;13.67;9.67
73146;PMS7003;61345;48.922;2.244;2023-04-03T01:44:50;25.67;19.33;11.33
73146;PMS7003;61345;48.922;2.244;2023-04-03T01:47:15;21.67;16.00;10.00
73146;PMS7003;61345;48.922;2.244;2023-04-03T01:49:40;23.33;16.33;10.00
73146;PMS7003;61345;48.922;2.244;2023-04-03T01:52:05;24.67;19.33;10.00
73146;PMS7003;61345;48.922;2.244;2023-04-03T01:54:31;21.00;17.33;13.33
73146;PMS7003;61345;48.922;2.244;2023-04-03T01:56:56;23.33;14.00;9.33
73146;PMS7003;61345;48.922;2.244;2023-04-03T01:59:21;24.33;17.67;12.00
73146;PMS7003;61345;48.922;2.244;2023-04-03T02:01:46;21.33;16.33;10.67
73146;PMS7003;61345;48.922;2.244;2023-04-03T02:04:12;21.00;17.00;10.00
73146;PMS7003;61345;48.922;2.244;2023-04-03T02:06:37;24.25;15.75;8.00
73146;PMS7003;61345;48.922;2.244;2023-04-03T02:09:03;22.00;16.33;10.67
73146;PMS7003;61345;48.922;2.244;2023-04-03T02:11:28;25.75;18.00;12.25
73146;PMS7003;61345;48.922;2.244;2023-04-03T02:13:53;24.00;15.33;11.33
73146;PMS7003;61345;48.922;2.244;2023-04-03T02:16:18;17.33;13.67;9.00
73146;PMS7003;61345;48.922;2.244;2023-04-03T02:18:43;22.33;16.00;12.00
73146;PMS7003;61345;48.922;2.244;2023-04-03T02:21:09;22.75;13.00;9.00
73146;PMS7003;61345;48.922;2.244;2023-04-03T02:23:34;29.33;19.00;10.67
73146;PMS7003;61345;48.922;2.244;2023-04-03T02:26:02;23.25;16.75;11.00
73146;PMS7003;61345;48.922;2.244;2023-04-03T02:28:28;19.50;17.25;11.00
73146;PMS7003;61345;48.922;2.244;2023-04-03T02:30:54;20.00;16.50;9.25
73146;PMS7003;61345;48.922;2.244;2023-04-03T02:33:19;20.00;14.00;9.00
73146;PMS7003;61345;48.922;2.244;2023-04-03T02:35:45;23.50;15.25;9.50
73146;PMS7003;61345;48.922;2.244;2023-04-03T02:38:17;20.00;14.75;11.50
73146;PMS7003;61345;48.922;2.244;2023-04-03T02:40:43;15.33;14.00;10.00
73146;PMS7003;61345;48.922;2.244;2023-04-03T02:43:08;21.00;14.67;9.33
73146;PMS7003;61345;48.922;2.244;2023-04-03T02:45:33;20.00;12.67;8.33
73146;PMS7003;61345;48.922;2.244;2023-04-03T02:47:59;20.00;14.00;9.75
73146;PMS7003;61345;48.922;2.244;2023-04-03T02:50:24;19.00;13.67;10.00
73146;PMS7003;61345;48.922;2.244;2023-04-03T02:52:49;18.00;13.00;10.00
73146;PMS7003;61345;48.922;2.244;2023-04-03T02:55:14;12.67;10.67;8.00
73146;PMS7003;61345;48.922;2.244;2023-04-03T02:57:40;12.25;9.00;8.00
73146;PMS7003;61345;48.922;2.244;2023-04-03T03:00:06;14.67;9.33;5.33
73146;PMS7003;61345;48.922;2.244;2023-04-03T03:02:31;17.25;12.75;9.25
73146;PMS7003;61345;48.922;2.244;2023-04-03T03:04:56;13.00;10.00;8.00
73146;PMS7003;61345;48.922;2.244;2023-04-03T03:07:22;13.00;8.67;6.00
73146;PMS7003;61345;48.922;2.244;2023-04-03T03:09:47;21.00;10.00;8.33
73146;PMS7003;61345;48.922;2.244;2023-04-03T03:12:12;13.00;10.00;6.00
73146;PMS7003;61345;48.922;2.244;2023-04-03T03:14:37;17.67;10.33;6.67
73146;PMS7003;61345;48.922;2.244;2023-04-03T03:17:02;14.67;9.33;8.00
73146;PMS7003;61345;48.922;2.244;2023-04-03T03:19:29;20.50;9.75;6.00
73146;PMS7003;61345;48.922;2.244;2023-04-03T03:21:54;12.25;6.00;5.75
73146;PMS7003;61345;48.922;2.244;2023-04-03T03:24:20;15.00;10.00;6.67
73146;PMS7003;61345;48.922;2.244;2023-04-03T03:26:45;12.67;7.33;4.00
73146;PMS7003;61345;48.922;2.244;2023-04-03T03:29:10;15.50;11.00;6.00
73146;PMS7003;61345;48.922;2.244;2023-04-03T03:31:36;13.75;8.75;5.00
73146;PMS7003;61345;48.922;2.244;2023-04-03T03:34:01;15.67;9.00;6.00
73146;PMS7003;61345;48.922;2.244;2023-04-03T03:36:26;12.00;10.00;7.33
73146;PMS7003;61345;48.922;2.244;2023-04-03T03:38:51;15.33;11.33;5.33
73146;PMS7003;61345;48.922;2.244;2023-04-03T03:41:16;10.67;8.00;6.00
73146;PMS7003;61345;48.922;2.244;2023-04-03T03:43:42;12.00;9.00;6.67
73146;PMS7003;61345;48.922;2.244;2023-04-03T03:46:07;14.33;8.67;6.00
73146;PMS7003;61345;48.922;2.244;2023-04-03T03:48:32;16.00;9.00;6.00
73146;PMS7003;61345;48.922;2.244;2023-04-03T03:50:57;13.67;9.00;6.00
73146;PMS7003;61345;48.922;2.244;2023-04-03T03:53:23;14.33;9.00;6.00
73146;PMS7003;61345;48.922;2.244;2023-04-03T03:55:48;14.33;11.33;7.33
73146;PMS7003;61345;48.922;2.244;2023-04-03T03:58:13;15.33;10.00;7.33
73146;PMS7003;61345;48.922;2.244;2023-04-03T04:00:38;13.00;9.00;6.67
73146;PMS7003;61345;48.922;2.244;2023-04-03T04:03:03;11.33;9.00;6.00
73146;PMS7003;61345;48.922;2.244;2023-04-03T04:05:29;13.75;9.00;7.00
73146;PMS7003;61345;48.922;2.244;2023-04-03T04:07:55;13.00;11.50;8.00
73146;PMS7003;61345;48.922;2.244;2023-04-03T04:10:20;12.00;10.00;6.00
73146;PMS7003;61345;48.922;2.244;2023-04-03T04:12:45;13.00;8.00;5.33
73146;PMS7003;61345;48.922;2.244;2023-04-03T04:15:11;12.00;10.00;8.00
73146;PMS7003;61345;48.922;2.244;2023-04-03T04:17:36;12.00;10.00;7.33
73146;PMS7003;61345;48.922;2.244;2023-04-03T04:20:02;14.33;10.00;8.00
73146;PMS7003;61345;48.922;2.244;2023-04-03T04:22:27;12.00;9.25;6.00
73146;PMS7003;61345;48.922;2.244;2023-04-03T04:24:52;13.33;10.00;6.67
73146;PMS7003;61345;48.922;2.244;2023-04-03T04:27:18;10.67;8.00;5.00
73146;PMS7003;61345;48.922;2.244;2023-04-03T04:29:43;13.00;10.00;6.00
73146;PMS7003;61345;48.922;2.244;2023-04-03T04:32:08;21.00;13.00;8.00
73146;PMS7003;61345;48.922;2.244;2023-04-03T04:34:33;12.75;10.00;8.00
73146;PMS7003;61345;48.922;2.244;2023-04-03T04:36:59;10.25;8.00;5.00
73146;PMS7003;61345;48.922;2.244;2023-04-03T04:39:24;14.00;9.00;6.00
73146;PMS7003;61345;48.922;2.244;2023-04-03T04:41:50;17.00;11.00;8.00
73146;PMS7003;61345;48.922;2.244;2023-04-03T04:44:15;16.67;10.67;8.67
73146;PMS7003;61345;48.922;2.244;2023-04-03T04:46:40;13.00;10.00;8.00
73146;PMS7003;61345;48.922;2.244;2023-04-03T04:49:06;10.00;8.00;6.00
73146;PMS7003;61345;48.922;2.244;2023-04-03T04:51:31;15.67;9.67;6.67
73146;PMS7003;61345;48.922;2.244;2023-04-03T04:53:56;12.33;9.00;6.00
73146;PMS7003;61345;48.922;2.244;2023-04-03T04:56:21;15.67;9.00;6.00
73146;PMS7003;61345;48.922;2.244;2023-04-03T04:58:46;16.00;11.00;8.00
73146;PMS7003;61345;48.922;2.244;2023-04-03T05:01:12;14.67;10.33;6.00
73146;PMS7003;61345;48.922;2.244;2023-04-03T05:03:37;10.33;9.67;7.33
73146;PMS7003;61345;48.922;2.244;2023-04-03T05:06:02;13.00;10.00;7.33
73146;PMS7003;61345;48.922;2.244;2023-04-03T05:08:27;10.67;9.00;5.00
73146;PMS7003;61345;48.922;2.244;2023-04-03T05:10:53;12.67;11.33;8.00
73146;PMS7003;61345;48.922;2.244;2023-04-03T05:13:18;16.00;9.00;6.00
73146;PMS7003;61345;48.922;2.244;2023-04-03T05:15:43;11.33;10.00;9.00
73146;PMS7003;61345;48.922;2.244;2023-04-03T05:18:08;16.00;12.00;9.00
73146;PMS7003;61345;48.922;2.244;2023-04-03T05:20:34;17.25;10.50;6.00
73146;PMS7003;61345;48.922;2.244;2023-04-03T05:22:59;13.50;12.00;7.00
73146;PMS7003;61345;48.922;2.244;2023-04-03T05:25:25;17.00;13.00;9.00
73146;PMS7003;61345;48.922;2.244;2023-04-03T05:27:50;16.00;9.00;6.00
73146;PMS7003;61345;48.922;2.244;2023-04-03T05:30:16;12.00;6.00;5.00
73146;PMS7003;61345;48.922;2.244;2023-04-03T05:32:41;15.75;12.00;7.50
73146;PMS7003;61345;48.922;2.244;2023-04-03T05:35:07;13.25;10.00;6.00
73146;PMS7003;61345;48.922;2.244;2023-04-03T05:37:33;17.25;12.25;8.50
73146;PMS7003;61345;48.922;2.244;2023-04-03T05:39:58;23.00;15.00;9.00
73146;PMS7003;61345;48.922;2.244;2023-04-03T05:42:23;16.00;10.33;7.33
73146;PMS7003;61345;48.922;2.244;2023-04-03T05:44:49;22.00;12.00;8.00
73146;PMS7003;61345;48.922;2.244;2023-04-03T05:47:15;20.50;15.00;8.00
73146;PMS7003;61345;48.922;2.244;2023-04-03T05:49:40;16.75;13.75;9.75
73146;PMS7003;61345;48.922;2.244;2023-04-03T05:52:06;13.67;11.33;6.67
73146;PMS7003;61345;48.922;2.244;2023-04-03T05:54:35;14.25;11.25;8.25
73146;PMS7003;61345;48.922;2.244;2023-04-03T05:57:01;15.00;10.00;6.00
73146;PMS7003;61345;48.922;2.244;2023-04-03T05:59:26;14.67;5.67;4.00
73146;PMS7003;61345;48.922;2.244;2023-04-03T06:01:51;16.00;10.67;8.00
73146;PMS7003;61345;48.922;2.244;2023-04-03T06:04:17;12.75;9.25;6.00
73146;PMS7003;61345;48.922;2.244;2023-04-03T06:09:09;16.00;10.50;8.25
73146;PMS7003;61345;48.922;2.244;2023-04-03T06:11:34;16.00;10.67;8.00
73146;PMS7003;61345;48.922;2.244;2023-04-03T06:14:00;18.00;13.00;9.25
73146;PMS7003;61345;48.922;2.244;2023-04-03T06:16:26;15.00;12.50;9.50
73146;PMS7003;61345;48.922;2.244;2023-04-03T06:18:51;24.33;14.00;9.33
73146;PMS7003;61345;48.922;2.244;2023-04-03T06:21:16;17.00;12.00;8.33
73146;PMS7003;61345;48.922;2.244;2023-04-03T06:23:41;16.33;12.67;9.00
73146;PMS7003;61345;48.922;2.244;2023-04-03T06:26:06;20.00;13.00;9.00
73146;PMS7003;61345;48.922;2.244;2023-04-03T06:28:32;10.67;8.00;5.00
73146;PMS7003;61345;48.922;2.244;2023-04-03T06:30:57;15.50;13.50;8.00
73146;PMS7003;61345;48.922;2.244;2023-04-03T06:33:22;21.00;15.00;9.00
73146;PMS7003;61345;48.922;2.244;2023-04-03T06:35:47;20.00;12.00;8.00
73146;PMS7003;61345;48.922;2.244;2023-04-03T06:38:13;21.33;11.67;8.00
73146;PMS7003;61345;48.922;2.244;2023-04-03T06:40:38;11.33;9.00;8.00
73146;PMS7003;61345;48.922;2.244;2023-04-03T06:43:03;19.25;10.00;8.00
73146;PMS7003;61345;48.922;2.244;2023-04-03T06:45:30;17.75;13.00;8.75
73146;PMS7003;61345;48.922;2.244;2023-04-03T06:47:55;16.75;12.00;6.00
73146;PMS7003;61345;48.922;2.244;2023-04-03T06:50:20;16.33;14.67;9.00
73146;PMS7003;61345;48.922;2.244;2023-04-03T06:52:46;21.33;13.00;9.00
73146;PMS7003;61345;48.922;2.244;2023-04-03T06:55:11;25.33;12.67;8.00
73146;PMS7003;61345;48.922;2.244;2023-04-03T06:57:36;13.00;13.00;8.50
73146;PMS7003;61345;48.922;2.244;2023-04-03T07:00:02;16.50;13.00;9.00
73146;PMS7003;61345;48.922;2.244;2023-04-03T07:02:29;25.75;17.75;12.75
73146;PMS7003;61345;48.922;2.244;2023-04-03T07:04:54;18.33;12.00;9.00
73146;PMS7003;61345;48.922;2.244;2023-04-03T07:07:19;18.25;15.25;9.00
73146;PMS7003;61345;48.922;2.244;2023-04-03T07:09:45;18.75;13.00;9.00
73146;PMS7003;61345;48.922;2.244;2023-04-03T07:12:12;17.00;13.25;9.00
73146;PMS7003;61345;48.922;2.244;2023-04-03T07:14:38;19.67;15.00;9.00
73146;PMS7003;61345;48.922;2.244;2023-04-03T07:17:03;16.00;9.67;8.67
73146;PMS7003;61345;48.922;2.244;2023-04-03T07:19:28;16.00;12.33;9.00
73146;PMS7003;61345;48.922;2.244;2023-04-03T07:21:53;19.67;12.67;9.00
73146;PMS7003;61345;48.922;2.244;2023-04-03T07:24:19;18.50;8.75;5.25
73146;PMS7003;61345;48.922;2.244;2023-04-03T07:26:48;16.75;12.75;9.00
73146;PMS7003;61345;48.922;2.244;2023-04-03T07:29:13;17.50;13.00;8.50
73146;PMS7003;61345;48.922;2.244;2023-04-03T07:31:39;15.50;9.00;6.75
73146;PMS7003;61345;48.922;2.244;2023-04-03T07:34:05;13.25;12.00;9.00
73146;PMS7003;61345;48.922;2.244;2023-04-03T07:36:30;14.50;11.00;8.25
73146;PMS7003;61345;48.922;2.244;2023-04-03T07:38:58;16.50;10.50;7.75
73146;PMS7003;61345;48.922;2.244;2023-04-03T07:41:23;15.00;12.33;8.00
73146;PMS7003;61345;48.922;2.244;2023-04-03T07:43:48;16.00;12.00;8.33
73146;PMS7003;61345;48.922;2.244;2023-04-03T07:46:14;17.50;13.75;7.75
73146;PMS7003;61345;48.922;2.244;2023-04-03T07:48:40;9.75;8.25;5.00
73146;PMS7003;61345;48.922;2.244;2023-04-03T07:51:05;18.50;12.00;9.00
73146;PMS7003;61345;48.922;2.244;2023-04-03T07:53:31;13.50;9.50;7.25
73146;PMS7003;61345;48.922;2.244;2023-04-03T07:55:57;18.75;12.00;7.50
73146;PMS7003;61345;48.922;2.244;2023-04-03T07:58:22;19.75;12.00;8.75
73146;PMS7003;61345;48.922;2.244;2023-04-03T08:00:48;17.33;13.00;7.00
73146;PMS7003;61345;48.922;2.244;2023-04-03T08:03:14;15.25;9.00;6.00
73146;PMS7003;61345;48.922;2.244;2023-04-03T08:05:41;12.75;9.00;6.50
73146;PMS7003;61345;48.922;2.244;2023-04-03T08:08:07;17.25;12.50;9.00
73146;PMS7003;61345;48.922;2.244;2023-04-03T08:10:33;17.50;11.25;8.00
73146;PMS7003;61345;48.922;2.244;2023-04-03T08:12:59;13.50;11.25;9.00
73146;PMS7003;61345;48.922;2.244;2023-04-03T08:15:24;17.25;11.25;9.25
73146;PMS7003;61345;48.922;2.244;2023-04-03T08:17:50;13.75;10.25;8.75
73146;PMS7003;61345;48.922;2.244;2023-04-03T08:20:15;15.33;10.00;7.33
73146;PMS7003;61345;48.922;2.244;2023-04-03T08:22:41;16.50;10.75;8.00
73146;PMS7003;61345;48.922;2.244;2023-04-03T08:25:06;14.00;9.67;7.33
73146;PMS7003;61345;48.922;2.244;2023-04-03T08:27:32;12.50;10.00;7.00
73146;PMS7003;61345;48.922;2.244;2023-04-03T08:29:57;14.75;10.25;6.50
73146;PMS7003;61345;48.922;2.244;2023-04-03T08:32:23;11.00;7.00;6.00
73146;PMS7003;61345;48.922;2.244;2023-04-03T08:34:49;14.25;10.25;7.00
73146;PMS7003;61345;48.922;2.244;2023-04-03T08:37:14;9.00;6.00;4.00
73146;PMS7003;61345;48.922;2.244;2023-04-03T08:39:41;13.50;8.50;6.00
73146;PMS7003;61345;48.922;2.244;2023-04-03T08:42:12;6.00;5.00;3.00
73146;PMS7003;61345;48.922;2.244;2023-04-03T08:49:35;7.00;5.00;3.00
73146;PMS7003;61345;48.922;2.244;2023-04-03T08:52:04;5.00;5.00;3.00
73146;PMS7003;61345;48.922;2.244;2023-04-03T08:54:33;5.00;4.50;2.25
73146;PMS7003;61345;48.922;2.244;2023-04-03T08:56:59;4.75;4.50;2.00
73146;PMS7003;61345;48.922;2.244;2023-04-03T08:59:31;6.00;5.00;3.50
73146;PMS7003;61345;48.922;2.244;2023-04-03T09:01:57;9.75;3.00;2.50
73146;PMS7003;61345;48.922;2.244;2023-04-03T09:04:23;2.50;2.50;2.00
73146;PMS7003;61345;48.922;2.244;2023-04-03T09:06:55;7.00;3.50;3.00
73146;PMS7003;61345;48.922;2.244;2023-04-03T09:09:30;6.00;3.00;2.75
73146;PMS7003;61345;48.922;2.244;2023-04-03T09:14:26;4.67;3.00;3.00
73146;PMS7003;61345;48.922;2.244;2023-04-03T09:17:15;7.50;5.50;4.00
73146;PMS7003;61345;48.922;2.244;2023-04-03T09:19:54;6.00;5.00;3.00
73146;PMS7003;61345;48.922;2.244;2023-04-03T09:22:25;8.50;4.50;3.00
73146;PMS7003;61345;48.922;2.244;2023-04-03T09:27:22;8.50;5.25;4.00
73146;PMS7003;61345;48.922;2.244;2023-04-03T09:29:47;5.00;5.00;2.67
73146;PMS7003;61345;48.922;2.244;2023-04-03T09:32:27;1.00;1.00;0.00
73146;PMS7003;61345;48.922;2.244;2023-04-03T09:34:53;9.50;4.00;3.00
73146;PMS7003;61345;48.922;2.244;2023-04-03T09:40:03;9.25;5.00;3.50
73146;PMS7003;61345;48.922;2.244;2023-04-03T09:42:29;3.00;3.00;2.00
73146;PMS7003;61345;48.922;2.244;2023-04-03T09:44:57;5.00;4.50;3.00
73146;PMS7003;61345;48.922;2.244;2023-04-03T09:49:47;4.00;1.75;1.25
73146;PMS7003;61345;48.922;2.244;2023-04-03T09:52:25;6.33;4.33;3.00
73146;PMS7003;61345;48.922;2.244;2023-04-03T09:54:51;5.00;4.00;3.00
73146;PMS7003;61345;48.922;2.244;2023-04-03T09:57:16;5.33;3.00;2.33
73146;PMS7003;61345;48.922;2.244;2023-04-03T09:59:44;7.00;5.75;3.50
73146;PMS7003;61345;48.922;2.244;2023-04-03T10:02:23;5.25;3.00;2.00
73146;PMS7003;61345;48.922;2.244;2023-04-03T10:04:53;3.50;3.00;2.00
73146;PMS7003;61345;48.922;2.244;2023-04-03T10:07:28;5.67;5.00;2.67
73146;PMS7003;61345;48.922;2.244;2023-04-03T10:09:58;6.00;3.00;2.75
73146;PMS7003;61345;48.922;2.244;2023-04-03T10:12:23;3.00;2.50;2.00
73146;PMS7003;61345;48.922;2.244;2023-04-03T10:14:59;5.33;5.00;3.00
73146;PMS7003;61345;48.922;2.244;2023-04-03T10:19:57;6.00;3.00;2.75
73146;PMS7003;61345;48.922;2.244;2023-04-03T10:27:42;3.50;3.50;3.00
73146;PMS7003;61345;48.922;2.244;2023-04-03T10:30:19;4.00;4.00;3.00
73146;PMS7003;61345;48.922;2.244;2023-04-03T10:32:51;4.50;4.50;3.00
73146;PMS7003;61345;48.922;2.244;2023-04-03T10:35:19;7.25;3.00;2.00
73146;PMS7003;61345;48.922;2.244;2023-04-03T10:41:17;5.25;3.00;2.75
73146;PMS7003;61345;48.922;2.244;2023-04-03T10:43:33;2.00;2.00;2.00
73146;PMS7003;61345;48.922;2.244;2023-04-03T10:46:15;2.50;2.00;2.00
73146;PMS7003;61345;48.922;2.244;2023-04-03T10:56:27;3.00;3.00;2.00
73146;PMS7003;61345;48.922;2.244;2023-04-03T10:59:08;2.50;2.50;2.00
73146;PMS7003;61345;48.922;2.244;2023-04-03T11:01:39;5.50;5.00;3.00
73146;PMS7003;61345;48.922;2.244;2023-04-03T11:04:06;3.00;2.00;2.00
73146;PMS7003;61345;48.922;2.244;2023-04-03T11:06:34;2.00;2.00;1.25
73146;PMS7003;61345;48.922;2.244;2023-04-03T11:11:35;3.00;2.50;2.00
73146;PMS7003;61345;48.922;2.244;2023-04-03T11:16:47;4.50;2.00;2.00
73146;PMS7003;61345;48.922;2.244;2023-04-03T11:19:17;6.25;2.25;2.00
73146;PMS7003;61345;48.922;2.244;2023-04-03T11:22:09;3.00;2.00;1.50
73146;PMS7003;61345;48.922;2.244;2023-04-03T11:24:32;3.25;0.00;0.00
73146;PMS7003;61345;48.922;2.244;2023-04-03T11:26:58;4.00;2.50;2.00
73146;PMS7003;61345;48.922;2.244;2023-04-03T11:29:26;6.50;2.25;2.00
73146;PMS7003;61345;48.922;2.244;2023-04-03T11:34:35;7.25;2.75;2.00
73146;PMS7003;61345;48.922;2.244;2023-04-03T11:37:05;3.75;2.75;2.00
73146;PMS7003;61345;48.922;2.244;2023-04-03T11:39:36;2.00;2.00;2.00
73146;PMS7003;61345;48.922;2.244;2023-04-03T11:42:13;4.00;3.00;2.00
73146;PMS7003;61345;48.922;2.244;2023-04-03T11:44:39;2.25;2.00;2.00
73146;PMS7003;61345;48.922;2.244;2023-04-03T11:47:05;3.00;2.00;2.00
73146;PMS7003;61345;48.922;2.244;2023-04-03T11:52:54;2.00;2.00;2.00
73146;PMS7003;61345;48.922;2.244;2023-04-03T12:02:58;4.00;3.00;3.00
73146;PMS7003;61345;48.922;2.244;2023-04-03T12:05:24;5.00;3.00;2.00
73146;PMS7003;61345;48.922;2.244;2023-04-03T12:10:34;2.75;2.00;2.00
73146;PMS7003;61345;48.922;2.244;2023-04-03T12:13:00;2.50;2.50;2.25
73146;PMS7003;61345;48.922;2.244;2023-04-03T12:18:30;3.25;2.00;1.50
73146;PMS7003;61345;48.922;2.244;2023-04-03T12:20:53;4.00;2.00;2.00
73146;PMS7003;61345;48.922;2.244;2023-04-03T12:23:32;3.50;0.50;0.50
73146;PMS7003;61345;48.922;2.244;2023-04-03T12:26:31;2.50;2.00;1.75
73146;PMS7003;61345;48.922;2.244;2023-04-03T12:28:50;1.25;1.25;0.75
73146;PMS7003;61345;48.922;2.244;2023-04-03T12:31:18;4.00;2.25;2.00
73146;PMS7003;61345;48.922;2.244;2023-04-03T12:33:58;2.75;2.75;2.00
73146;PMS7003;61345;48.922;2.244;2023-04-03T12:36:29;2.00;2.00;1.75
73146;PMS7003;61345;48.922;2.244;2023-04-03T12:46:37;2.75;2.75;2.00
73146;PMS7003;61345;48.922;2.244;2023-04-03T12:49:05;4.00;3.00;3.00
73146;PMS7003;61345;48.922;2.244;2023-04-03T12:51:38;2.00;2.00;1.25
73146;PMS7003;61345;48.922;2.244;2023-04-03T12:54:15;2.25;2.25;2.00
73146;PMS7003;61345;48.922;2.244;2023-04-03T12:56:41;3.50;2.25;2.25
73146;PMS7003;61345;48.922;2.244;2023-04-03T12:59:14;3.00;3.00;2.33
73146;PMS7003;61345;48.922;2.244;2023-04-03T13:01:40;1.75;1.00;1.00
73146;PMS7003;61345;48.922;2.244;2023-04-03T13:04:05;1.00;1.00;0.00
73146;PMS7003;61345;48.922;2.244;2023-04-03T13:06:32;1.00;1.00;0.75
73146;PMS7003;61345;48.922;2.244;2023-04-03T13:09:00;2.00;2.00;2.00
73146;PMS7003;61345;48.922;2.244;2023-04-03T13:11:59;0.00;0.00;0.00
73146;PMS7003;61345;48.922;2.244;2023-04-03T13:14:19;2.00;1.50;1.00
73146;PMS7003;61345;48.922;2.244;2023-04-03T13:17:05;1.75;1.00;0.75
73146;PMS7003;61345;48.922;2.244;2023-04-03T13:19:31;1.00;1.00;1.00
73146;PMS7003;61345;48.922;2.244;2023-04-03T13:22:04;2.00;0.00;0.00
73146;PMS7003;61345;48.922;2.244;2023-04-03T13:24:31;2.00;1.00;0.00
73146;PMS7003;61345;48.922;2.244;2023-04-03T13:26:57;1.00;1.00;0.00
73146;PMS7003;61345;48.922;2.244;2023-04-03T13:29:24;1.00;1.00;0.25
73146;PMS7003;61345;48.922;2.244;2023-04-03T13:31:52;1.50;1.00;0.50
73146;PMS7003;61345;48.922;2.244;2023-04-03T13:34:19;0.00;0.00;0.00
73146;PMS7003;61345;48.922;2.244;2023-04-03T13:36:46;1.00;1.00;1.00
73146;PMS7003;61345;48.922;2.244;2023-04-03T13:39:38;0.00;0.00;0.00
73146;PMS7003;61345;48.922;2.244;2023-04-03T13:44:48;2.00;0.75;0.25
73146;PMS7003;61345;48.922;2.244;2023-04-03T13:47:18;1.25;1.00;1.00
73146;PMS7003;61345;48.922;2.244;2023-04-03T13:49:45;2.50;0.50;0.00
73146;PMS7003;61345;48.922;2.244;2023-04-03T13:54:47;0.75;0.00;0.00
73146;PMS7003;61345;48.922;2.244;2023-04-03T13:57:13;1.00;1.00;1.00
73146;PMS7003;61345;48.922;2.244;2023-04-03T13:59:39;1.00;0.00;0.00
73146;PMS7003;61345;48.922;2.244;2023-04-03T14:02:16;0.25;0.25;0.25
73146;PMS7003;61345;48.922;2.244;2023-04-03T14:04:57;3.00;1.00;0.50
73146;PMS7003;61345;48.922;2.244;2023-04-03T14:07:25;1.75;1.50;1.00
73146;PMS7003;61345;48.922;2.244;2023-04-03T14:09:50;1.00;1.00;1.00
73146;PMS7003;61345;48.922;2.244;2023-04-03T14:12:25;2.00;2.00;1.00
73146;PMS7003;61345;48.922;2.244;2023-04-03T14:14:51;0.00;0.00;0.00
73146;PMS7003;61345;48.922;2.244;2023-04-03T14:17:18;0.00;0.00;0.00
73146;PMS7003;61345;48.922;2.244;2023-04-03T14:19:44;0.75;0.75;0.00
73146;PMS7003;61345;48.922;2.244;2023-04-03T14:22:29;1.25;1.00;0.25
73146;PMS7003;61345;48.922;2.244;2023-04-03T14:24:56;1.75;1.00;1.00
73146;PMS7003;61345;48.922;2.244;2023-04-03T14:27:26;0.00;0.00;0.00
73146;PMS7003;61345;48.922;2.244;2023-04-03T14:29:52;1.00;1.00;0.00
73146;PMS7003;61345;48.922;2.244;2023-04-03T14:32:19;2.00;1.00;1.00
73146;PMS7003;61345;48.922;2.244;2023-04-03T14:34:45;1.00;1.00;1.00
73146;PMS7003;61345;48.922;2.244;2023-04-03T14:37:15;1.50;0.75;0.75
73146;PMS7003;61345;48.922;2.244;2023-04-03T14:39:41;1.00;1.00;0.25
73146;PMS7003;61345;48.922;2.244;2023-04-03T14:42:10;3.00;1.00;0.75
73146;PMS7003;61345;48.922;2.244;2023-04-03T14:44:36;1.00;0.25;0.00
73146;PMS7003;61345;48.922;2.244;2023-04-03T14:47:01;1.67;1.00;0.00
73146;PMS7003;61345;48.922;2.244;2023-04-03T14:49:27;1.00;1.00;1.00
73146;PMS7003;61345;48.922;2.244;2023-04-03T14:51:53;3.00;1.25;1.00
73146;PMS7003;61345;48.922;2.244;2023-04-03T14:54:20;1.00;1.00;0.25
73146;PMS7003;61345;48.922;2.244;2023-04-03T14:56:50;0.25;0.25;0.25
73146;PMS7003;61345;48.922;2.244;2023-04-03T14:59:15;1.00;0.75;0.00
73146;PMS7003;61345;48.922;2.244;2023-04-03T15:01:42;1.50;1.50;1.00
73146;PMS7003;61345;48.922;2.244;2023-04-03T15:04:12;2.67;1.00;0.67
73146;PMS7003;61345;48.922;2.244;2023-04-03T15:06:37;0.75;0.75;0.00
73146;PMS7003;61345;48.922;2.244;2023-04-03T15:09:03;0.00;0.00;0.00
73146;PMS7003;61345;48.922;2.244;2023-04-03T15:11:28;0.67;0.67;0.33
73146;PMS7003;61345;48.922;2.244;2023-04-03T15:13:53;1.00;1.00;0.75
73146;PMS7003;61345;48.922;2.244;2023-04-03T15:16:19;1.67;0.33;0.33
73146;PMS7003;61345;48.922;2.244;2023-04-03T15:18:44;1.50;1.50;1.00
73146;PMS7003;61345;48.922;2.244;2023-04-03T15:21:09;1.00;1.00;1.00
73146;PMS7003;61345;48.922;2.244;2023-04-03T15:23:35;1.50;1.50;1.00
73146;PMS7003;61345;48.922;2.244;2023-04-03T15:26:00;0.67;0.67;0.67
73146;PMS7003;61345;48.922;2.244;2023-04-03T15:28:36;1.00;1.00;0.25